Pecan Gap, Texas
Current Conditions -  °F | °C
As of 6:35 AM on Tuesday 27 Jan 2015 (Local Time) from KSLR Reporting Station
Clear Clear  
Wind Chill: 42°   Ceiling: Unl
Heat Index: 44°   Visibility: 10mi
Dew Point: 37°   Wind: 5mph
Humidity: 77%   Direction: 250°WSW
Pressure: 30.12"   Gusts: NA
Location:  33.44°N, 95.85°W
Report Text: KSLR 271235Z AUTO 25004KT 10SM CLR 07/03 A3012 RMK AO2 T00680030
Loading
Personal Weather Stations






























Interactive Weather Map New forecast layout! Learn more

10-Day Weather Forecast

Advertisements
Track Severe Weather on mobile